sensor_id;sensor_type;location;lat;lon;timestamp;temperature;humidity
4922;DHT22;16625;53.624;10.106;2024-01-30T00:02:23;2.80;99.90
4922;DHT22;16625;53.624;10.106;2024-01-30T00:04:51;4.40;1.00
4922;DHT22;16625;53.624;10.106;2024-01-30T00:07:18;2.70;1.00
4922;DHT22;16625;53.624;10.106;2024-01-30T00:09:46;2.80;1.00
4922;DHT22;16625;53.624;10.106;2024-01-30T00:12:13;2.80;1.00
4922;DHT22;16625;53.624;10.106;2024-01-30T00:14:41;2.70;15.20
4922;DHT22;16625;53.624;10.106;2024-01-30T00:17:09;3.80;99.90
4922;DHT22;16625;53.624;10.106;2024-01-30T00:19:37;3.90;99.90
4922;DHT22;16625;53.624;10.106;2024-01-30T00:22:04;4.40;99.90
4922;DHT22;16625;53.624;10.106;2024-01-30T00:24:32;2.80;99.90
4922;DHT22;16625;53.624;10.106;2024-01-30T00:26:59;4.20;1.00
4922;DHT22;16625;53.624;10.106;2024-01-30T00:29:26;2.70;1.00
4922;DHT22;16625;53.624;10.106;2024-01-30T00:31:56;2.70;99.90
4922;DHT22;16625;53.624;10.106;2024-01-30T00:34:24;2.90;99.90
4922;DHT22;16625;53.624;10.106;2024-01-30T00:36:52;2.80;99.90
4922;DHT22;16625;53.624;10.106;2024-01-30T00:39:19;2.70;99.90
4922;DHT22;16625;53.624;10.106;2024-01-30T00:41:46;2.70;1.00
4922;DHT22;16625;53.624;10.106;2024-01-30T00:44:13;2.70;1.00
4922;DHT22;16625;53.624;10.106;2024-01-30T00:46:40;2.70;1.00
4922;DHT22;16625;53.624;10.106;2024-01-30T00:49:07;2.70;1.00
4922;DHT22;16625;53.624;10.106;2024-01-30T00:51:34;2.80;1.00
4922;DHT22;16625;53.624;10.106;2024-01-30T00:54:02;2.80;1.00
4922;DHT22;16625;53.624;10.106;2024-01-30T00:56:29;4.20;92.20
4922;DHT22;16625;53.624;10.106;2024-01-30T00:58:57;3.80;99.90
4922;DHT22;16625;53.624;10.106;2024-01-30T01:01:25;4.60;27.30
4922;DHT22;16625;53.624;10.106;2024-01-30T01:03:52;3.30;2.10
4922;DHT22;16625;53.624;10.106;2024-01-30T01:06:19;2.80;24.40
4922;DHT22;16625;53.624;10.106;2024-01-30T01:08:46;3.70;28.80
4922;DHT22;16625;53.624;10.106;2024-01-30T01:11:15;3.90;9.00
4922;DHT22;16625;53.624;10.106;2024-01-30T01:13:42;4.10;45.50
4922;DHT22;16625;53.624;10.106;2024-01-30T01:16:09;4.10;1.00
4922;DHT22;16625;53.624;10.106;2024-01-30T01:18:36;2.80;1.00
4922;DHT22;16625;53.624;10.106;2024-01-30T01:21:03;2.80;1.00
4922;DHT22;16625;53.624;10.106;2024-01-30T01:23:30;2.80;1.00
4922;DHT22;16625;53.624;10.106;2024-01-30T01:25:57;2.90;1.00
4922;DHT22;16625;53.624;10.106;2024-01-30T01:28:26;2.90;1.00
4922;DHT22;16625;53.624;10.106;2024-01-30T01:30:53;4.40;1.00
4922;DHT22;16625;53.624;10.106;2024-01-30T01:33:24;2.80;1.00
4922;DHT22;16625;53.624;10.106;2024-01-30T01:35:51;2.90;1.00
4922;DHT22;16625;53.624;10.106;2024-01-30T01:38:19;4.30;1.00
4922;DHT22;16625;53.624;10.106;2024-01-30T01:40:45;4.00;1.00
4922;DHT22;16625;53.624;10.106;2024-01-30T01:43:12;3.70;1.00
4922;DHT22;16625;53.624;10.106;2024-01-30T01:45:41;3.70;1.00
4922;DHT22;16625;53.624;10.106;2024-01-30T01:48:08;2.90;1.00
4922;DHT22;16625;53.624;10.106;2024-01-30T01:50:36;2.90;1.00
4922;DHT22;16625;53.624;10.106;2024-01-30T01:53:05;4.20;1.00
4922;DHT22;16625;53.624;10.106;2024-01-30T01:55:34;3.00;1.00
4922;DHT22;16625;53.624;10.106;2024-01-30T01:58:02;3.00;1.00
4922;DHT22;16625;53.624;10.106;2024-01-30T02:00:30;3.10;99.90
4922;DHT22;16625;53.624;10.106;2024-01-30T02:02:59;3.80;99.90
4922;DHT22;16625;53.624;10.106;2024-01-30T02:05:27;4.00;99.90
4922;DHT22;16625;53.624;10.106;2024-01-30T02:07:54;3.10;99.90
4922;DHT22;16625;53.624;10.106;2024-01-30T02:10:21;3.20;16.30
4922;DHT22;16625;53.624;10.106;2024-01-30T02:12:48;4.50;1.00
4922;DHT22;16625;53.624;10.106;2024-01-30T02:15:15;3.30;1.00
4922;DHT22;16625;53.624;10.106;2024-01-30T02:17:42;4.40;1.00
4922;DHT22;16625;53.624;10.106;2024-01-30T02:20:12;3.50;99.90
4922;DHT22;16625;53.624;10.106;2024-01-30T02:22:43;3.30;99.90
4922;DHT22;16625;53.624;10.106;2024-01-30T02:25:12;3.30;99.90
4922;DHT22;16625;53.624;10.106;2024-01-30T02:27:39;3.30;99.90
4922;DHT22;16625;53.624;10.106;2024-01-30T02:30:07;3.30;99.90
4922;DHT22;16625;53.624;10.106;2024-01-30T02:32:34;3.30;94.70
4922;DHT22;16625;53.624;10.106;2024-01-30T02:35:03;3.30;45.30
4922;DHT22;16625;53.624;10.106;2024-01-30T02:37:30;3.30;18.50
4922;DHT22;16625;53.624;10.106;2024-01-30T02:39:59;3.30;1.00
4922;DHT22;16625;53.624;10.106;2024-01-30T02:42:25;3.30;1.00
4922;DHT22;16625;53.624;10.106;2024-01-30T02:44:52;3.30;1.00
4922;DHT22;16625;53.624;10.106;2024-01-30T02:47:19;3.30;21.00
4922;DHT22;16625;53.624;10.106;2024-01-30T02:49:46;3.30;1.00
4922;DHT22;16625;53.624;10.106;2024-01-30T02:52:13;3.30;1.00
4922;DHT22;16625;53.624;10.106;2024-01-30T02:54:40;3.30;1.00
4922;DHT22;16625;53.624;10.106;2024-01-30T02:57:09;3.30;1.00
4922;DHT22;16625;53.624;10.106;2024-01-30T02:59:36;3.20;1.00
4922;DHT22;16625;53.624;10.106;2024-01-30T03:02:03;3.20;1.00
4922;DHT22;16625;53.624;10.106;2024-01-30T03:04:30;3.10;1.00
4922;DHT22;16625;53.624;10.106;2024-01-30T03:06:57;3.30;1.00
4922;DHT22;16625;53.624;10.106;2024-01-30T03:09:24;4.10;1.00
4922;DHT22;16625;53.624;10.106;2024-01-30T03:11:51;3.10;1.00
4922;DHT22;16625;53.624;10.106;2024-01-30T03:14:19;4.30;99.90
4922;DHT22;16625;53.624;10.106;2024-01-30T03:16:46;3.00;99.90
4922;DHT22;16625;53.624;10.106;2024-01-30T03:19:13;4.10;99.90
4922;DHT22;16625;53.624;10.106;2024-01-30T03:21:40;4.00;99.90
4922;DHT22;16625;53.624;10.106;2024-01-30T03:24:07;3.00;99.90
4922;DHT22;16625;53.624;10.106;2024-01-30T03:26:34;3.00;99.90
4922;DHT22;16625;53.624;10.106;2024-01-30T03:29:01;3.00;99.90
4922;DHT22;16625;53.624;10.106;2024-01-30T03:31:30;2.90;99.90
4922;DHT22;16625;53.624;10.106;2024-01-30T03:33:57;2.90;99.90
4922;DHT22;16625;53.624;10.106;2024-01-30T03:36:24;2.80;99.90
4922;DHT22;16625;53.624;10.106;2024-01-30T03:38:51;3.40;99.90
4922;DHT22;16625;53.624;10.106;2024-01-30T03:41:18;4.00;99.90
4922;DHT22;16625;53.624;10.106;2024-01-30T03:43:45;4.20;99.90
4922;DHT22;16625;53.624;10.106;2024-01-30T03:46:12;2.70;1.00
4922;DHT22;16625;53.624;10.106;2024-01-30T03:48:46;2.70;1.00
4922;DHT22;16625;53.624;10.106;2024-01-30T03:51:13;2.70;1.00
4922;DHT22;16625;53.624;10.106;2024-01-30T03:53:41;2.90;99.90
4922;DHT22;16625;53.624;10.106;2024-01-30T03:56:08;3.40;99.90
4922;DHT22;16625;53.624;10.106;2024-01-30T03:58:35;2.60;99.90
4922;DHT22;16625;53.624;10.106;2024-01-30T04:01:03;2.50;99.90
4922;DHT22;16625;53.624;10.106;2024-01-30T04:03:30;2.50;1.00
4922;DHT22;16625;53.624;10.106;2024-01-30T04:06:01;2.50;1.00
4922;DHT22;16625;53.624;10.106;2024-01-30T04:08:28;3.80;12.30
4922;DHT22;16625;53.624;10.106;2024-01-30T04:10:55;2.50;99.90
4922;DHT22;16625;53.624;10.106;2024-01-30T04:13:22;2.50;99.90
4922;DHT22;16625;53.624;10.106;2024-01-30T04:15:49;2.50;99.90
4922;DHT22;16625;53.624;10.106;2024-01-30T04:18:16;2.40;1.00
4922;DHT22;16625;53.624;10.106;2024-01-30T04:20:42;4.20;1.00
4922;DHT22;16625;53.624;10.106;2024-01-30T04:23:11;2.50;1.00
4922;DHT22;16625;53.624;10.106;2024-01-30T04:25:38;2.40;1.00
4922;DHT22;16625;53.624;10.106;2024-01-30T04:28:05;2.40;99.90
4922;DHT22;16625;53.624;10.106;2024-01-30T04:30:32;3.10;99.90
4922;DHT22;16625;53.624;10.106;2024-01-30T04:32:59;2.30;99.90
4922;DHT22;16625;53.624;10.106;2024-01-30T04:35:25;2.30;1.00
4922;DHT22;16625;53.624;10.106;2024-01-30T04:37:53;2.30;99.90
4922;DHT22;16625;53.624;10.106;2024-01-30T04:40:21;2.30;99.90
4922;DHT22;16625;53.624;10.106;2024-01-30T04:42:49;2.30;1.00
4922;DHT22;16625;53.624;10.106;2024-01-30T04:45:16;2.30;99.90
4922;DHT22;16625;53.624;10.106;2024-01-30T04:47:43;2.20;99.90
4922;DHT22;16625;53.624;10.106;2024-01-30T04:50:11;2.90;99.90
4922;DHT22;16625;53.624;10.106;2024-01-30T04:52:38;3.80;1.00
4922;DHT22;16625;53.624;10.106;2024-01-30T04:55:06;3.40;1.00
4922;DHT22;16625;53.624;10.106;2024-01-30T04:57:35;2.20;1.00
4922;DHT22;16625;53.624;10.106;2024-01-30T05:00:02;2.10;99.90
4922;DHT22;16625;53.624;10.106;2024-01-30T05:02:30;2.10;99.90
4922;DHT22;16625;53.624;10.106;2024-01-30T05:04:59;3.00;99.90
4922;DHT22;16625;53.624;10.106;2024-01-30T05:07:26;2.10;1.00
4922;DHT22;16625;53.624;10.106;2024-01-30T05:09:53;2.10;1.00
4922;DHT22;16625;53.624;10.106;2024-01-30T05:12:20;2.10;1.00
4922;DHT22;16625;53.624;10.106;2024-01-30T05:14:49;3.30;1.00
4922;DHT22;16625;53.624;10.106;2024-01-30T05:17:15;2.10;86.90
4922;DHT22;16625;53.624;10.106;2024-01-30T05:19:43;2.10;99.90
4922;DHT22;16625;53.624;10.106;2024-01-30T05:22:10;3.70;99.90
4922;DHT22;16625;53.624;10.106;2024-01-30T05:24:41;2.20;99.90
4922;DHT22;16625;53.624;10.106;2024-01-30T05:27:08;2.20;99.90
4922;DHT22;16625;53.624;10.106;2024-01-30T05:29:35;3.30;99.90
4922;DHT22;16625;53.624;10.106;2024-01-30T05:32:05;2.30;99.90
4922;DHT22;16625;53.624;10.106;2024-01-30T05:34:32;2.40;99.90
4922;DHT22;16625;53.624;10.106;2024-01-30T05:36:58;2.40;99.90
4922;DHT22;16625;53.624;10.106;2024-01-30T05:39:25;2.50;99.90
4922;DHT22;16625;53.624;10.106;2024-01-30T05:41:55;2.50;99.90
4922;DHT22;16625;53.624;10.106;2024-01-30T05:44:22;3.10;99.90
4922;DHT22;16625;53.624;10.106;2024-01-30T05:46:48;2.60;99.90
4922;DHT22;16625;53.624;10.106;2024-01-30T05:49:17;2.60;99.90
4922;DHT22;16625;53.624;10.106;2024-01-30T05:51:44;2.60;99.90
4922;DHT22;16625;53.624;10.106;2024-01-30T05:54:11;2.60;99.90
4922;DHT22;16625;53.624;10.106;2024-01-30T05:56:38;2.60;99.90
4922;DHT22;16625;53.624;10.106;2024-01-30T05:59:05;2.60;99.90
4922;DHT22;16625;53.624;10.106;2024-01-30T06:01:33;2.60;99.90
4922;DHT22;16625;53.624;10.106;2024-01-30T06:04:00;2.60;99.90
4922;DHT22;16625;53.624;10.106;2024-01-30T06:06:29;2.60;99.90
4922;DHT22;16625;53.624;10.106;2024-01-30T06:08:56;2.50;99.90
4922;DHT22;16625;53.624;10.106;2024-01-30T06:11:23;2.50;99.90
4922;DHT22;16625;53.624;10.106;2024-01-30T06:13:50;3.70;99.90
4922;DHT22;16625;53.624;10.106;2024-01-30T06:16:17;2.50;99.90
4922;DHT22;16625;53.624;10.106;2024-01-30T06:18:46;2.50;99.90
4922;DHT22;16625;53.624;10.106;2024-01-30T06:21:14;2.50;99.90
4922;DHT22;16625;53.624;10.106;2024-01-30T06:23:42;2.50;99.90
4922;DHT22;16625;53.624;10.106;2024-01-30T06:26:12;2.60;99.90
4922;DHT22;16625;53.624;10.106;2024-01-30T06:28:39;3.40;99.90
4922;DHT22;16625;53.624;10.106;2024-01-30T06:31:06;2.60;99.90
4922;DHT22;16625;53.624;10.106;2024-01-30T06:33:32;3.40;99.90
4922;DHT22;16625;53.624;10.106;2024-01-30T06:36:04;2.70;99.90
4922;DHT22;16625;53.624;10.106;2024-01-30T06:38:31;2.80;99.90
4922;DHT22;16625;53.624;10.106;2024-01-30T06:40:59;2.90;99.90
4922;DHT22;16625;53.624;10.106;2024-01-30T06:43:26;2.90;99.90
4922;DHT22;16625;53.624;10.106;2024-01-30T06:45:53;3.00;99.90
4922;DHT22;16625;53.624;10.106;2024-01-30T06:48:20;3.00;99.90
4922;DHT22;16625;53.624;10.106;2024-01-30T06:50:47;3.10;99.90
4922;DHT22;16625;53.624;10.106;2024-01-30T06:53:14;3.10;99.90
4922;DHT22;16625;53.624;10.106;2024-01-30T06:55:41;3.10;99.90
4922;DHT22;16625;53.624;10.106;2024-01-30T06:58:10;3.20;99.90
4922;DHT22;16625;53.624;10.106;2024-01-30T07:00:37;3.20;99.90
4922;DHT22;16625;53.624;10.106;2024-01-30T07:03:05;3.20;99.90
4922;DHT22;16625;53.624;10.106;2024-01-30T07:05:32;4.00;99.90
4922;DHT22;16625;53.624;10.106;2024-01-30T07:07:59;3.20;99.90
4922;DHT22;16625;53.624;10.106;2024-01-30T07:10:26;4.60;99.90
4922;DHT22;16625;53.624;10.106;2024-01-30T07:12:53;4.60;99.90
4922;DHT22;16625;53.624;10.106;2024-01-30T07:15:22;3.10;99.90
4922;DHT22;16625;53.624;10.106;2024-01-30T07:17:49;4.00;99.90
4922;DHT22;16625;53.624;10.106;2024-01-30T07:20:16;3.80;99.90
4922;DHT22;16625;53.624;10.106;2024-01-30T07:22:45;4.30;99.90
4922;DHT22;16625;53.624;10.106;2024-01-30T07:25:13;4.00;99.90
4922;DHT22;16625;53.624;10.106;2024-01-30T07:27:40;4.00;99.90
4922;DHT22;16625;53.624;10.106;2024-01-30T07:30:08;4.50;99.90
4922;DHT22;16625;53.624;10.106;2024-01-30T07:32:36;2.90;99.90
4922;DHT22;16625;53.624;10.106;2024-01-30T07:35:04;4.80;99.90
4922;DHT22;16625;53.624;10.106;2024-01-30T07:37:32;3.00;99.90
4922;DHT22;16625;53.624;10.106;2024-01-30T07:39:59;4.70;99.90
4922;DHT22;16625;53.624;10.106;2024-01-30T07:42:26;3.00;99.90
4922;DHT22;16625;53.624;10.106;2024-01-30T07:44:54;3.00;99.90
4922;DHT22;16625;53.624;10.106;2024-01-30T07:47:21;3.10;99.90
4922;DHT22;16625;53.624;10.106;2024-01-30T07:49:49;4.10;99.90
4922;DHT22;16625;53.624;10.106;2024-01-30T07:52:17;3.20;99.90
4922;DHT22;16625;53.624;10.106;2024-01-30T07:54:49;4.60;99.90
4922;DHT22;16625;53.624;10.106;2024-01-30T08:03:55;3.60;99.90
4922;DHT22;16625;53.624;10.106;2024-01-30T08:06:23;3.70;99.90
4922;DHT22;16625;53.624;10.106;2024-01-30T08:08:51;3.80;99.90
4922;DHT22;16625;53.624;10.106;2024-01-30T08:11:20;5.10;99.90
4922;DHT22;16625;53.624;10.106;2024-01-30T08:13:51;3.90;99.90
4922;DHT22;16625;53.624;10.106;2024-01-30T08:16:18;4.00;99.90
4922;DHT22;16625;53.624;10.106;2024-01-30T08:18:45;4.00;99.90
4922;DHT22;16625;53.624;10.106;2024-01-30T08:21:11;4.20;99.90
4922;DHT22;16625;53.624;10.106;2024-01-30T08:23:40;5.60;99.90
4922;DHT22;16625;53.624;10.106;2024-01-30T08:26:07;4.20;99.90
4922;DHT22;16625;53.624;10.106;2024-01-30T08:28:33;4.20;99.90
4922;DHT22;16625;53.624;10.106;2024-01-30T08:31:00;4.30;99.90
4922;DHT22;16625;53.624;10.106;2024-01-30T08:33:27;4.40;99.90
4922;DHT22;16625;53.624;10.106;2024-01-30T08:35:54;4.40;99.90
4922;DHT22;16625;53.624;10.106;2024-01-30T08:38:21;4.60;99.90
4922;DHT22;16625;53.624;10.106;2024-01-30T08:40:49;4.70;99.90
4922;DHT22;16625;53.624;10.106;2024-01-30T08:43:16;4.80;99.90
4922;DHT22;16625;53.624;10.106;2024-01-30T08:45:43;4.90;99.90
4922;DHT22;16625;53.624;10.106;2024-01-30T08:48:12;5.10;99.90
4922;DHT22;16625;53.624;10.106;2024-01-30T08:50:39;5.00;76.20
4922;DHT22;16625;53.624;10.106;2024-01-30T08:53:09;5.10;1.00
4922;DHT22;16625;53.624;10.106;2024-01-30T08:55:36;5.20;99.90
4922;DHT22;16625;53.624;10.106;2024-01-30T08:58:06;5.20;99.90
4922;DHT22;16625;53.624;10.106;2024-01-30T09:00:33;5.20;1.00
4922;DHT22;16625;53.624;10.106;2024-01-30T09:03:00;5.30;1.00
4922;DHT22;16625;53.624;10.106;2024-01-30T09:05:29;5.30;99.90
4922;DHT22;16625;53.624;10.106;2024-01-30T09:07:56;5.40;99.90
4922;DHT22;16625;53.624;10.106;2024-01-30T09:10:23;5.50;1.00
4922;DHT22;16625;53.624;10.106;2024-01-30T09:12:52;5.50;1.00
4922;DHT22;16625;53.624;10.106;2024-01-30T09:15:21;5.70;99.90
4922;DHT22;16625;53.624;10.106;2024-01-30T09:17:48;5.70;99.90
4922;DHT22;16625;53.624;10.106;2024-01-30T09:20:16;5.80;1.00
4922;DHT22;16625;53.624;10.106;2024-01-30T09:22:43;5.80;1.00
4922;DHT22;16625;53.624;10.106;2024-01-30T09:25:10;5.90;99.90
4922;DHT22;16625;53.624;10.106;2024-01-30T09:27:37;6.00;99.90
4922;DHT22;16625;53.624;10.106;2024-01-30T09:30:07;6.00;17.60
4922;DHT22;16625;53.624;10.106;2024-01-30T09:32:35;6.10;1.00
4922;DHT22;16625;53.624;10.106;2024-01-30T09:35:08;6.20;1.00
4922;DHT22;16625;53.624;10.106;2024-01-30T09:37:35;6.30;99.90
4922;DHT22;16625;53.624;10.106;2024-01-30T09:40:02;6.30;99.90
4922;DHT22;16625;53.624;10.106;2024-01-30T09:42:33;6.40;38.40
4922;DHT22;16625;53.624;10.106;2024-01-30T09:45:01;6.40;1.00
4922;DHT22;16625;53.624;10.106;2024-01-30T09:47:31;7.70;1.00
4922;DHT22;16625;53.624;10.106;2024-01-30T09:50:01;6.60;99.90
4922;DHT22;16625;53.624;10.106;2024-01-30T09:52:28;6.60;99.90
4922;DHT22;16625;53.624;10.106;2024-01-30T09:54:56;6.60;27.60
4922;DHT22;16625;53.624;10.106;2024-01-30T09:57:23;6.70;1.00
4922;DHT22;16625;53.624;10.106;2024-01-30T09:59:51;6.70;1.00
4922;DHT22;16625;53.624;10.106;2024-01-30T10:02:19;6.70;99.90
4922;DHT22;16625;53.624;10.106;2024-01-30T10:04:48;6.90;99.90
4922;DHT22;16625;53.624;10.106;2024-01-30T10:10:28;6.90;99.90
4922;DHT22;16625;53.624;10.106;2024-01-30T10:12:55;6.90;96.50
4922;DHT22;16625;53.624;10.106;2024-01-30T10:15:30;7.00;2.70
4922;DHT22;16625;53.624;10.106;2024-01-30T10:18:00;7.10;1.00
4922;DHT22;16625;53.624;10.106;2024-01-30T10:20:28;7.10;1.00
4922;DHT22;16625;53.624;10.106;2024-01-30T10:22:55;8.00;1.00
4922;DHT22;16625;53.624;10.106;2024-01-30T10:25:22;7.30;99.90
4922;DHT22;16625;53.624;10.106;2024-01-30T10:27:54;8.10;99.90
4922;DHT22;16625;53.624;10.106;2024-01-30T10:30:21;7.40;99.90
4922;DHT22;16625;53.624;10.106;2024-01-30T10:32:49;7.50;97.60
4922;DHT22;16625;53.624;10.106;2024-01-30T10:35:30;7.50;1.00
4922;DHT22;16625;53.624;10.106;2024-01-30T10:37:57;8.50;1.00
4922;DHT22;16625;53.624;10.106;2024-01-30T10:40:28;8.50;1.00
4922;DHT22;16625;53.624;10.106;2024-01-30T10:42:57;7.80;1.00
4922;DHT22;16625;53.624;10.106;2024-01-30T10:45:28;7.80;99.90
4922;DHT22;16625;53.624;10.106;2024-01-30T10:47:59;7.90;99.90
4922;DHT22;16625;53.624;10.106;2024-01-30T10:50:27;7.90;99.90
4922;DHT22;16625;53.624;10.106;2024-01-30T10:52:54;8.00;99.90
4922;DHT22;16625;53.624;10.106;2024-01-30T10:55:22;8.10;99.90
4922;DHT22;16625;53.624;10.106;2024-01-30T10:57:50;8.90;99.90
4922;DHT22;16625;53.624;10.106;2024-01-30T11:00:20;8.10;99.90
4922;DHT22;16625;53.624;10.106;2024-01-30T11:02:50;8.30;24.20
4922;DHT22;16625;53.624;10.106;2024-01-30T11:05:24;8.30;1.00
4922;DHT22;16625;53.624;10.106;2024-01-30T11:07:52;8.30;1.00
4922;DHT22;16625;53.624;10.106;2024-01-30T11:10:19;8.40;1.00
4922;DHT22;16625;53.624;10.106;2024-01-30T11:12:46;8.40;1.00
4922;DHT22;16625;53.624;10.106;2024-01-30T11:15:14;10.10;1.00
4922;DHT22;16625;53.624;10.106;2024-01-30T11:17:49;8.50;1.00
4922;DHT22;16625;53.624;10.106;2024-01-30T11:20:19;8.50;99.90
4922;DHT22;16625;53.624;10.106;2024-01-30T11:22:47;8.50;99.90
4922;DHT22;16625;53.624;10.106;2024-01-30T11:25:14;8.60;99.90
4922;DHT22;16625;53.624;10.106;2024-01-30T11:27:42;8.60;99.90
4922;DHT22;16625;53.624;10.106;2024-01-30T11:30:10;8.70;99.90
4922;DHT22;16625;53.624;10.106;2024-01-30T11:32:37;8.70;99.90
4922;DHT22;16625;53.624;10.106;2024-01-30T11:35:06;8.80;99.90
4922;DHT22;16625;53.624;10.106;2024-01-30T11:37:37;9.30;99.90
4922;DHT22;16625;53.624;10.106;2024-01-30T11:40:06;8.70;99.90
4922;DHT22;16625;53.624;10.106;2024-01-30T11:42:34;8.60;99.90
4922;DHT22;16625;53.624;10.106;2024-01-30T11:45:05;8.60;99.90
4922;DHT22;16625;53.624;10.106;2024-01-30T11:47:35;8.60;99.90
4922;DHT22;16625;53.624;10.106;2024-01-30T11:50:02;8.60;99.90
4922;DHT22;16625;53.624;10.106;2024-01-30T11:52:33;8.60;99.90
4922;DHT22;16625;53.624;10.106;2024-01-30T11:55:02;8.60;99.90
4922;DHT22;16625;53.624;10.106;2024-01-30T11:57:29;8.70;99.90
4922;DHT22;16625;53.624;10.106;2024-01-30T11:59:56;8.70;97.90
4922;DHT22;16625;53.624;10.106;2024-01-30T12:02:23;10.20;90.80
4922;DHT22;16625;53.624;10.106;2024-01-30T12:04:50;8.70;80.60
4922;DHT22;16625;53.624;10.106;2024-01-30T12:07:17;10.00;79.50
4922;DHT22;16625;53.624;10.106;2024-01-30T12:09:53;8.70;83.60
4922;DHT22;16625;53.624;10.106;2024-01-30T12:12:22;9.60;54.00
4922;DHT22;16625;53.624;10.106;2024-01-30T12:14:50;9.50;79.70
4922;DHT22;16625;53.624;10.106;2024-01-30T12:17:24;10.00;91.00
4922;DHT22;16625;53.624;10.106;2024-01-30T12:19:51;8.70;63.80
4922;DHT22;16625;53.624;10.106;2024-01-30T12:22:20;8.80;50.90
4922;DHT22;16625;53.624;10.106;2024-01-30T12:24:47;8.80;28.70
4922;DHT22;16625;53.624;10.106;2024-01-30T12:27:16;8.80;29.80
4922;DHT22;16625;53.624;10.106;2024-01-30T12:29:43;8.80;32.30
4922;DHT22;16625;53.624;10.106;2024-01-30T12:32:15;10.10;31.80
4922;DHT22;16625;53.624;10.106;2024-01-30T12:34:42;8.90;15.80
4922;DHT22;16625;53.624;10.106;2024-01-30T12:37:09;10.30;14.10
4922;DHT22;16625;53.624;10.106;2024-01-30T12:39:37;9.20;10.70
4922;DHT22;16625;53.624;10.106;2024-01-30T12:42:04;8.80;5.00
4922;DHT22;16625;53.624;10.106;2024-01-30T12:44:33;8.80;53.40
4922;DHT22;16625;53.624;10.106;2024-01-30T12:47:02;8.90;36.50
4922;DHT22;16625;53.624;10.106;2024-01-30T12:49:30;8.90;9.40
4922;DHT22;16625;53.624;10.106;2024-01-30T12:51:57;9.30;1.00
4922;DHT22;16625;53.624;10.106;2024-01-30T12:54:25;9.00;1.00
4922;DHT22;16625;53.624;10.106;2024-01-30T12:56:52;9.00;1.00
4922;DHT22;16625;53.624;10.106;2024-01-30T12:59:19;9.10;1.00
4922;DHT22;16625;53.624;10.106;2024-01-30T13:01:47;9.10;1.00
4922;DHT22;16625;53.624;10.106;2024-01-30T13:04:14;9.60;1.00
4922;DHT22;16625;53.624;10.106;2024-01-30T13:06:42;9.10;1.00
4922;DHT22;16625;53.624;10.106;2024-01-30T13:09:09;9.10;1.00
4922;DHT22;16625;53.624;10.106;2024-01-30T13:11:36;9.20;1.00
4922;DHT22;16625;53.624;10.106;2024-01-30T13:14:03;9.20;1.00
4922;DHT22;16625;53.624;10.106;2024-01-30T13:16:30;9.20;1.00
4922;DHT22;16625;53.624;10.106;2024-01-30T13:18:58;9.20;12.00
4922;DHT22;16625;53.624;10.106;2024-01-30T13:21:26;9.80;20.50
4922;DHT22;16625;53.624;10.106;2024-01-30T13:23:54;9.20;34.70
4922;DHT22;16625;53.624;10.106;2024-01-30T13:26:21;9.20;56.80
4922;DHT22;16625;53.624;10.106;2024-01-30T13:28:48;9.20;84.70
4922;DHT22;16625;53.624;10.106;2024-01-30T13:31:15;9.20;99.90
4922;DHT22;16625;53.624;10.106;2024-01-30T13:33:42;9.30;99.90
4922;DHT22;16625;53.624;10.106;2024-01-30T13:36:12;9.30;99.90
4922;DHT22;16625;53.624;10.106;2024-01-30T13:38:38;9.40;99.90
4922;DHT22;16625;53.624;10.106;2024-01-30T13:41:06;9.40;99.90
4922;DHT22;16625;53.624;10.106;2024-01-30T13:43:34;9.30;99.90
4922;DHT22;16625;53.624;10.106;2024-01-30T13:46:01;9.30;99.90
4922;DHT22;16625;53.624;10.106;2024-01-30T13:48:28;9.30;99.90
4922;DHT22;16625;53.624;10.106;2024-01-30T13:50:55;9.30;99.90
4922;DHT22;16625;53.624;10.106;2024-01-30T13:53:26;9.30;99.90
4922;DHT22;16625;53.624;10.106;2024-01-30T13:55:53;9.30;99.90
4922;DHT22;16625;53.624;10.106;2024-01-30T13:58:20;10.40;99.90
4922;DHT22;16625;53.624;10.106;2024-01-30T14:00:48;9.30;99.90
4922;DHT22;16625;53.624;10.106;2024-01-30T14:03:14;10.90;99.90
4922;DHT22;16625;53.624;10.106;2024-01-30T14:05:41;9.40;99.90
4922;DHT22;16625;53.624;10.106;2024-01-30T14:08:09;9.40;99.90
4922;DHT22;16625;53.624;10.106;2024-01-30T14:10:38;9.40;99.90
4922;DHT22;16625;53.624;10.106;2024-01-30T14:13:05;9.80;99.90
4922;DHT22;16625;53.624;10.106;2024-01-30T14:15:31;10.10;99.90
4922;DHT22;16625;53.624;10.106;2024-01-30T14:17:58;9.40;99.90
4922;DHT22;16625;53.624;10.106;2024-01-30T14:20:24;9.40;99.90
4922;DHT22;16625;53.624;10.106;2024-01-30T14:22:51;9.50;99.90
4922;DHT22;16625;53.624;10.106;2024-01-30T14:25:18;9.50;99.90
4922;DHT22;16625;53.624;10.106;2024-01-30T14:27:47;9.40;99.90
4922;DHT22;16625;53.624;10.106;2024-01-30T14:30:14;9.80;99.90
4922;DHT22;16625;53.624;10.106;2024-01-30T14:32:42;9.50;99.90
4922;DHT22;16625;53.624;10.106;2024-01-30T14:35:10;9.50;99.90
4922;DHT22;16625;53.624;10.106;2024-01-30T14:37:37;9.50;99.90
4922;DHT22;16625;53.624;10.106;2024-01-30T14:40:06;9.50;99.90
4922;DHT22;16625;53.624;10.106;2024-01-30T14:42:33;9.50;99.90
4922;DHT22;16625;53.624;10.106;2024-01-30T14:45:03;9.50;1.00
4922;DHT22;16625;53.624;10.106;2024-01-30T14:47:31;9.50;1.00
4922;DHT22;16625;53.624;10.106;2024-01-30T14:49:58;11.00;1.00
4922;DHT22;16625;53.624;10.106;2024-01-30T14:52:25;9.60;1.00
4922;DHT22;16625;53.624;10.106;2024-01-30T14:54:52;9.50;1.00
4922;DHT22;16625;53.624;10.106;2024-01-30T14:57:19;9.50;1.00
4922;DHT22;16625;53.624;10.106;2024-01-30T14:59:45;9.50;1.00
4922;DHT22;16625;53.624;10.106;2024-01-30T15:02:16;10.20;1.00
4922;DHT22;16625;53.624;10.106;2024-01-30T15:04:43;9.50;1.00
4922;DHT22;16625;53.624;10.106;2024-01-30T15:07:10;9.50;1.00
4922;DHT22;16625;53.624;10.106;2024-01-30T15:09:37;9.50;1.00
4922;DHT22;16625;53.624;10.106;2024-01-30T15:12:04;9.60;1.00
4922;DHT22;16625;53.624;10.106;2024-01-30T15:14:31;9.60;1.00
4922;DHT22;16625;53.624;10.106;2024-01-30T15:16:58;9.60;1.00
4922;DHT22;16625;53.624;10.106;2024-01-30T15:19:27;9.60;1.00
4922;DHT22;16625;53.624;10.106;2024-01-30T15:21:54;9.60;46.40
4922;DHT22;16625;53.624;10.106;2024-01-30T15:24:21;10.30;64.10
4922;DHT22;16625;53.624;10.106;2024-01-30T15:26:50;9.70;25.30
4922;DHT22;16625;53.624;10.106;2024-01-30T15:29:17;9.60;62.90
4922;DHT22;16625;53.624;10.106;2024-01-30T15:31:46;9.60;99.90
4922;DHT22;16625;53.624;10.106;2024-01-30T15:34:13;9.60;99.90
4922;DHT22;16625;53.624;10.106;2024-01-30T15:36:42;9.60;99.90
4922;DHT22;16625;53.624;10.106;2024-01-30T15:39:08;9.60;99.90
4922;DHT22;16625;53.624;10.106;2024-01-30T15:41:36;9.60;99.90
4922;DHT22;16625;53.624;10.106;2024-01-30T15:44:04;9.60;99.90
4922;DHT22;16625;53.624;10.106;2024-01-30T15:46:31;9.60;99.90
4922;DHT22;16625;53.624;10.106;2024-01-30T15:48:58;10.40;99.90
4922;DHT22;16625;53.624;10.106;2024-01-30T15:51:25;9.60;99.90
4922;DHT22;16625;53.624;10.106;2024-01-30T15:53:54;9.60;99.90
4922;DHT22;16625;53.624;10.106;2024-01-30T15:56:21;9.50;99.90
4922;DHT22;16625;53.624;10.106;2024-01-30T15:58:48;9.40;99.90
4922;DHT22;16625;53.624;10.106;2024-01-30T16:01:17;9.50;99.90
4922;DHT22;16625;53.624;10.106;2024-01-30T16:03:44;10.60;99.90